sensor_id;sensor_type;location;lat;lon;timestamp;P1;durP1;ratioP1;P2;durP2;ratioP2
62268;SDS011;56517;51.634;5.566;2023-12-22T00:01:05;17.85;;;9.32;;
62268;SDS011;56517;51.634;5.566;2023-12-22T00:02:26;19.60;;;8.93;;
62268;SDS011;56517;51.634;5.566;2023-12-22T00:03:49;15.93;;;8.35;;
62268;SDS011;56517;51.634;5.566;2023-12-22T00:05:10;15.95;;;7.80;;
62268;SDS011;56517;51.634;5.566;2023-12-22T00:06:31;13.88;;;8.38;;
62268;SDS011;56517;51.634;5.566;2023-12-22T00:07:52;11.63;;;7.55;;
62268;SDS011;56517;51.634;5.566;2023-12-22T00:09:13;14.88;;;7.70;;
62268;SDS011;56517;51.634;5.566;2023-12-22T00:10:34;15.43;;;7.40;;
62268;SDS011;56517;51.634;5.566;2023-12-22T00:11:55;24.70;;;8.98;;
62268;SDS011;56517;51.634;5.566;2023-12-22T00:13:15;13.52;;;8.10;;
62268;SDS011;56517;51.634;5.566;2023-12-22T00:14:36;11.45;;;8.00;;
62268;SDS011;56517;51.634;5.566;2023-12-22T00:15:58;13.90;;;7.57;;
62268;SDS011;56517;51.634;5.566;2023-12-22T00:17:19;11.27;;;7.63;;
62268;SDS011;56517;51.634;5.566;2023-12-22T00:18:40;20.27;;;8.30;;
62268;SDS011;56517;51.634;5.566;2023-12-22T00:20:00;15.10;;;8.70;;
62268;SDS011;56517;51.634;5.566;2023-12-22T00:21:23;12.80;;;7.07;;
62268;SDS011;56517;51.634;5.566;2023-12-22T00:22:44;18.55;;;7.45;;
62268;SDS011;56517;51.634;5.566;2023-12-22T00:24:05;15.45;;;9.02;;
62268;SDS011;56517;51.634;5.566;2023-12-22T00:25:26;10.18;;;7.30;;
62268;SDS011;56517;51.634;5.566;2023-12-22T00:26:47;12.70;;;8.43;;
62268;SDS011;56517;51.634;5.566;2023-12-22T00:28:08;14.05;;;7.97;;
62268;SDS011;56517;51.634;5.566;2023-12-22T00:29:29;20.77;;;8.15;;
62268;SDS011;56517;51.634;5.566;2023-12-22T00:30:49;14.40;;;8.55;;
62268;SDS011;56517;51.634;5.566;2023-12-22T00:32:10;14.23;;;8.27;;
62268;SDS011;56517;51.634;5.566;2023-12-22T00:33:31;19.83;;;8.13;;
62268;SDS011;56517;51.634;5.566;2023-12-22T00:34:52;21.42;;;9.02;;
62268;SDS011;56517;51.634;5.566;2023-12-22T00:36:13;20.35;;;8.93;;
62268;SDS011;56517;51.634;5.566;2023-12-22T00:37:34;18.60;;;7.90;;
62268;SDS011;56517;51.634;5.566;2023-12-22T00:38:55;18.77;;;8.55;;
62268;SDS011;56517;51.634;5.566;2023-12-22T00:40:16;11.80;;;7.53;;
62268;SDS011;56517;51.634;5.566;2023-12-22T00:41:37;8.45;;;7.32;;
62268;SDS011;56517;51.634;5.566;2023-12-22T00:42:59;18.85;;;7.72;;
62268;SDS011;56517;51.634;5.566;2023-12-22T00:44:20;17.02;;;8.43;;
62268;SDS011;56517;51.634;5.566;2023-12-22T00:45:41;17.48;;;7.82;;
62268;SDS011;56517;51.634;5.566;2023-12-22T00:47:02;23.27;;;8.45;;
62268;SDS011;56517;51.634;5.566;2023-12-22T00:48:23;19.40;;;8.27;;
62268;SDS011;56517;51.634;5.566;2023-12-22T00:49:44;16.67;;;8.35;;
62268;SDS011;56517;51.634;5.566;2023-12-22T00:51:07;15.95;;;9.15;;
62268;SDS011;56517;51.634;5.566;2023-12-22T00:52:29;14.80;;;7.82;;
62268;SDS011;56517;51.634;5.566;2023-12-22T00:53:49;19.95;;;8.32;;
62268;SDS011;56517;51.634;5.566;2023-12-22T00:55:10;12.90;;;8.23;;
62268;SDS011;56517;51.634;5.566;2023-12-22T00:56:31;13.93;;;7.32;;
62268;SDS011;56517;51.634;5.566;2023-12-22T00:57:52;12.77;;;7.70;;
62268;SDS011;56517;51.634;5.566;2023-12-22T00:59:13;15.48;;;8.52;;
62268;SDS011;56517;51.634;5.566;2023-12-22T01:00:34;15.70;;;7.45;;
62268;SDS011;56517;51.634;5.566;2023-12-22T01:01:55;24.33;;;8.75;;
62268;SDS011;56517;51.634;5.566;2023-12-22T01:03:16;13.68;;;8.60;;
62268;SDS011;56517;51.634;5.566;2023-12-22T01:04:36;14.05;;;8.85;;
62268;SDS011;56517;51.634;5.566;2023-12-22T01:05:57;22.67;;;8.70;;
62268;SDS011;56517;51.634;5.566;2023-12-22T01:07:18;11.80;;;7.75;;
62268;SDS011;56517;51.634;5.566;2023-12-22T01:08:39;20.92;;;8.45;;
62268;SDS011;56517;51.634;5.566;2023-12-22T01:10:00;23.00;;;8.63;;
62268;SDS011;56517;51.634;5.566;2023-12-22T01:11:22;21.38;;;8.90;;
62268;SDS011;56517;51.634;5.566;2023-12-22T01:12:43;16.92;;;8.73;;
62268;SDS011;56517;51.634;5.566;2023-12-22T01:14:04;16.95;;;7.70;;
62268;SDS011;56517;51.634;5.566;2023-12-22T01:15:25;13.48;;;7.93;;
62268;SDS011;56517;51.634;5.566;2023-12-22T01:16:46;23.95;;;8.70;;
62268;SDS011;56517;51.634;5.566;2023-12-22T01:18:06;16.50;;;8.90;;
62268;SDS011;56517;51.634;5.566;2023-12-22T01:19:27;18.02;;;8.63;;
62268;SDS011;56517;51.634;5.566;2023-12-22T01:20:48;16.35;;;7.68;;
62268;SDS011;56517;51.634;5.566;2023-12-22T01:22:10;21.95;;;8.27;;
62268;SDS011;56517;51.634;5.566;2023-12-22T01:23:31;23.25;;;9.40;;
62268;SDS011;56517;51.634;5.566;2023-12-22T01:24:51;17.38;;;8.93;;
62268;SDS011;56517;51.634;5.566;2023-12-22T01:26:12;20.15;;;9.05;;
62268;SDS011;56517;51.634;5.566;2023-12-22T01:27:33;20.02;;;7.00;;
62268;SDS011;56517;51.634;5.566;2023-12-22T01:28:54;20.80;;;9.20;;
62268;SDS011;56517;51.634;5.566;2023-12-22T01:30:15;21.83;;;8.73;;
62268;SDS011;56517;51.634;5.566;2023-12-22T01:31:36;16.27;;;8.55;;
62268;SDS011;56517;51.634;5.566;2023-12-22T01:32:57;15.70;;;9.40;;
62268;SDS011;56517;51.634;5.566;2023-12-22T01:34:18;16.27;;;8.93;;
62268;SDS011;56517;51.634;5.566;2023-12-22T01:35:39;19.08;;;8.40;;
62268;SDS011;56517;51.634;5.566;2023-12-22T01:36:59;18.05;;;9.05;;
62268;SDS011;56517;51.634;5.566;2023-12-22T01:38:20;14.57;;;8.15;;
62268;SDS011;56517;51.634;5.566;2023-12-22T01:39:41;24.15;;;9.82;;
62268;SDS011;56517;51.634;5.566;2023-12-22T01:41:02;16.15;;;8.77;;
62268;SDS011;56517;51.634;5.566;2023-12-22T01:42:23;18.02;;;8.50;;
62268;SDS011;56517;51.634;5.566;2023-12-22T01:43:44;23.83;;;10.20;;
62268;SDS011;56517;51.634;5.566;2023-12-22T01:45:05;16.85;;;8.90;;
62268;SDS011;56517;51.634;5.566;2023-12-22T01:46:27;18.90;;;8.65;;
62268;SDS011;56517;51.634;5.566;2023-12-22T01:47:48;22.65;;;9.45;;
62268;SDS011;56517;51.634;5.566;2023-12-22T01:49:09;23.52;;;9.70;;
62268;SDS011;56517;51.634;5.566;2023-12-22T01:50:31;21.98;;;9.10;;
62268;SDS011;56517;51.634;5.566;2023-12-22T01:51:52;19.08;;;8.70;;
62268;SDS011;56517;51.634;5.566;2023-12-22T01:53:13;19.35;;;9.63;;
62268;SDS011;56517;51.634;5.566;2023-12-22T01:54:33;23.90;;;9.73;;
62268;SDS011;56517;51.634;5.566;2023-12-22T01:55:55;18.38;;;9.70;;
62268;SDS011;56517;51.634;5.566;2023-12-22T01:57:16;28.40;;;9.38;;
62268;SDS011;56517;51.634;5.566;2023-12-22T01:58:39;20.30;;;9.15;;
62268;SDS011;56517;51.634;5.566;2023-12-22T02:00:00;16.70;;;9.27;;
62268;SDS011;56517;51.634;5.566;2023-12-22T02:01:21;18.20;;;8.35;;
62268;SDS011;56517;51.634;5.566;2023-12-22T02:02:43;20.35;;;9.43;;
62268;SDS011;56517;51.634;5.566;2023-12-22T02:04:04;14.70;;;7.55;;
62268;SDS011;56517;51.634;5.566;2023-12-22T02:05:26;27.50;;;8.90;;
62268;SDS011;56517;51.634;5.566;2023-12-22T02:06:46;14.48;;;8.70;;
62268;SDS011;56517;51.634;5.566;2023-12-22T02:08:07;17.17;;;8.43;;
62268;SDS011;56517;51.634;5.566;2023-12-22T02:09:28;14.48;;;8.32;;
62268;SDS011;56517;51.634;5.566;2023-12-22T02:10:49;45.92;;;13.38;;
62268;SDS011;56517;51.634;5.566;2023-12-22T02:12:10;24.50;;;8.77;;
62268;SDS011;56517;51.634;5.566;2023-12-22T02:13:31;19.10;;;8.60;;
62268;SDS011;56517;51.634;5.566;2023-12-22T02:14:52;16.00;;;8.82;;
62268;SDS011;56517;51.634;5.566;2023-12-22T02:16:26;24.67;;;8.93;;
62268;SDS011;56517;51.634;5.566;2023-12-22T02:17:55;18.42;;;8.32;;
62268;SDS011;56517;51.634;5.566;2023-12-22T02:20:55;19.33;;;8.32;;
62268;SDS011;56517;51.634;5.566;2023-12-22T02:22:16;25.38;;;9.15;;
62268;SDS011;56517;51.634;5.566;2023-12-22T02:23:37;24.02;;;8.35;;
62268;SDS011;56517;51.634;5.566;2023-12-22T02:24:58;19.15;;;8.73;;
62268;SDS011;56517;51.634;5.566;2023-12-22T02:26:25;21.88;;;8.52;;
62268;SDS011;56517;51.634;5.566;2023-12-22T02:27:49;22.20;;;8.90;;
62268;SDS011;56517;51.634;5.566;2023-12-22T02:29:10;16.73;;;9.88;;
62268;SDS011;56517;51.634;5.566;2023-12-22T02:30:39;20.17;;;8.68;;
62268;SDS011;56517;51.634;5.566;2023-12-22T02:32:05;21.08;;;8.73;;
62268;SDS011;56517;51.634;5.566;2023-12-22T02:33:28;17.13;;;8.27;;
62268;SDS011;56517;51.634;5.566;2023-12-22T02:34:50;18.63;;;9.27;;
62268;SDS011;56517;51.634;5.566;2023-12-22T02:36:11;17.48;;;8.52;;
62268;SDS011;56517;51.634;5.566;2023-12-22T02:37:33;23.30;;;8.10;;
62268;SDS011;56517;51.634;5.566;2023-12-22T02:38:55;14.18;;;7.80;;
62268;SDS011;56517;51.634;5.566;2023-12-22T02:40:17;25.73;;;8.77;;
62268;SDS011;56517;51.634;5.566;2023-12-22T02:41:38;18.50;;;9.77;;
62268;SDS011;56517;51.634;5.566;2023-12-22T02:42:59;17.63;;;9.35;;
62268;SDS011;56517;51.634;5.566;2023-12-22T02:44:21;21.42;;;8.65;;
62268;SDS011;56517;51.634;5.566;2023-12-22T02:45:42;23.15;;;8.93;;
62268;SDS011;56517;51.634;5.566;2023-12-22T02:47:03;20.02;;;8.43;;
62268;SDS011;56517;51.634;5.566;2023-12-22T02:48:24;15.93;;;8.40;;
62268;SDS011;56517;51.634;5.566;2023-12-22T02:49:45;24.80;;;8.73;;
62268;SDS011;56517;51.634;5.566;2023-12-22T02:51:06;18.02;;;8.23;;
62268;SDS011;56517;51.634;5.566;2023-12-22T02:52:27;19.92;;;8.10;;
62268;SDS011;56517;51.634;5.566;2023-12-22T02:53:48;22.10;;;7.68;;
62268;SDS011;56517;51.634;5.566;2023-12-22T02:55:09;19.98;;;7.95;;
62268;SDS011;56517;51.634;5.566;2023-12-22T02:56:29;21.40;;;8.02;;
62268;SDS011;56517;51.634;5.566;2023-12-22T02:57:50;18.02;;;8.63;;
62268;SDS011;56517;51.634;5.566;2023-12-22T02:59:11;12.00;;;7.40;;
62268;SDS011;56517;51.634;5.566;2023-12-22T03:00:32;16.33;;;8.65;;
62268;SDS011;56517;51.634;5.566;2023-12-22T03:01:53;17.85;;;8.25;;
62268;SDS011;56517;51.634;5.566;2023-12-22T03:03:14;16.00;;;8.98;;
62268;SDS011;56517;51.634;5.566;2023-12-22T03:04:35;19.85;;;8.95;;
62268;SDS011;56517;51.634;5.566;2023-12-22T03:05:56;28.55;;;9.23;;
62268;SDS011;56517;51.634;5.566;2023-12-22T03:07:17;16.48;;;7.70;;
62268;SDS011;56517;51.634;5.566;2023-12-22T03:08:38;20.73;;;9.00;;
62268;SDS011;56517;51.634;5.566;2023-12-22T03:09:58;19.98;;;8.20;;
62268;SDS011;56517;51.634;5.566;2023-12-22T03:11:19;15.68;;;8.25;;
62268;SDS011;56517;51.634;5.566;2023-12-22T03:12:40;22.00;;;8.65;;
62268;SDS011;56517;51.634;5.566;2023-12-22T03:14:01;19.35;;;8.70;;
62268;SDS011;56517;51.634;5.566;2023-12-22T03:15:22;22.50;;;8.50;;
62268;SDS011;56517;51.634;5.566;2023-12-22T03:16:43;15.30;;;8.48;;
62268;SDS011;56517;51.634;5.566;2023-12-22T03:18:04;16.65;;;7.95;;
62268;SDS011;56517;51.634;5.566;2023-12-22T03:19:25;21.60;;;8.57;;
62268;SDS011;56517;51.634;5.566;2023-12-22T03:20:46;17.23;;;7.90;;
62268;SDS011;56517;51.634;5.566;2023-12-22T03:22:06;15.95;;;9.18;;
62268;SDS011;56517;51.634;5.566;2023-12-22T03:23:27;10.80;;;9.02;;
62268;SDS011;56517;51.634;5.566;2023-12-22T03:24:48;17.35;;;8.05;;
62268;SDS011;56517;51.634;5.566;2023-12-22T03:26:09;18.63;;;8.80;;
62268;SDS011;56517;51.634;5.566;2023-12-22T03:27:30;20.80;;;8.73;;
62268;SDS011;56517;51.634;5.566;2023-12-22T03:28:51;18.00;;;8.15;;
62268;SDS011;56517;51.634;5.566;2023-12-22T03:30:12;19.83;;;8.30;;
62268;SDS011;56517;51.634;5.566;2023-12-22T03:31:33;21.52;;;8.43;;
62268;SDS011;56517;51.634;5.566;2023-12-22T03:32:54;20.75;;;9.07;;
62268;SDS011;56517;51.634;5.566;2023-12-22T03:34:14;28.48;;;8.70;;
62268;SDS011;56517;51.634;5.566;2023-12-22T03:35:36;16.02;;;8.60;;
62268;SDS011;56517;51.634;5.566;2023-12-22T03:36:57;17.85;;;8.32;;
62268;SDS011;56517;51.634;5.566;2023-12-22T03:38:17;17.98;;;8.55;;
62268;SDS011;56517;51.634;5.566;2023-12-22T03:39:38;19.77;;;9.52;;
62268;SDS011;56517;51.634;5.566;2023-12-22T03:40:59;17.08;;;7.95;;
62268;SDS011;56517;51.634;5.566;2023-12-22T03:42:20;24.60;;;8.65;;
62268;SDS011;56517;51.634;5.566;2023-12-22T03:43:41;18.27;;;8.82;;
62268;SDS011;56517;51.634;5.566;2023-12-22T03:45:02;15.75;;;7.97;;
62268;SDS011;56517;51.634;5.566;2023-12-22T03:46:23;26.65;;;9.35;;
62268;SDS011;56517;51.634;5.566;2023-12-22T03:47:44;18.35;;;8.57;;
62268;SDS011;56517;51.634;5.566;2023-12-22T03:49:05;17.80;;;7.75;;
62268;SDS011;56517;51.634;5.566;2023-12-22T03:50:26;13.20;;;8.35;;
62268;SDS011;56517;51.634;5.566;2023-12-22T03:51:47;14.15;;;8.65;;
62268;SDS011;56517;51.634;5.566;2023-12-22T03:53:08;11.65;;;8.10;;
62268;SDS011;56517;51.634;5.566;2023-12-22T03:54:29;20.75;;;8.95;;
62268;SDS011;56517;51.634;5.566;2023-12-22T03:55:49;19.00;;;8.45;;
62268;SDS011;56517;51.634;5.566;2023-12-22T03:57:10;15.38;;;8.45;;
62268;SDS011;56517;51.634;5.566;2023-12-22T03:58:31;23.65;;;8.82;;
62268;SDS011;56517;51.634;5.566;2023-12-22T03:59:52;13.13;;;8.60;;
62268;SDS011;56517;51.634;5.566;2023-12-22T04:01:16;17.73;;;8.70;;
62268;SDS011;56517;51.634;5.566;2023-12-22T04:02:37;17.80;;;8.18;;
62268;SDS011;56517;51.634;5.566;2023-12-22T04:03:58;19.17;;;8.20;;
62268;SDS011;56517;51.634;5.566;2023-12-22T04:05:19;22.77;;;8.23;;
62268;SDS011;56517;51.634;5.566;2023-12-22T04:06:40;21.42;;;7.35;;
62268;SDS011;56517;51.634;5.566;2023-12-22T04:08:01;16.92;;;8.52;;
62268;SDS011;56517;51.634;5.566;2023-12-22T04:09:22;17.33;;;8.73;;
62268;SDS011;56517;51.634;5.566;2023-12-22T04:10:42;20.92;;;8.35;;
62268;SDS011;56517;51.634;5.566;2023-12-22T04:13:25;18.63;;;8.35;;
62268;SDS011;56517;51.634;5.566;2023-12-22T04:14:46;9.65;;;7.10;;
62268;SDS011;56517;51.634;5.566;2023-12-22T04:16:07;15.98;;;8.68;;
62268;SDS011;56517;51.634;5.566;2023-12-22T04:17:28;15.82;;;8.52;;
62268;SDS011;56517;51.634;5.566;2023-12-22T04:18:49;25.90;;;8.90;;
62268;SDS011;56517;51.634;5.566;2023-12-22T04:20:10;19.63;;;9.02;;
62268;SDS011;56517;51.634;5.566;2023-12-22T04:21:31;18.50;;;8.90;;
62268;SDS011;56517;51.634;5.566;2023-12-22T04:22:52;17.42;;;8.27;;
62268;SDS011;56517;51.634;5.566;2023-12-22T04:24:12;19.45;;;8.10;;
62268;SDS011;56517;51.634;5.566;2023-12-22T04:25:33;19.55;;;8.45;;
62268;SDS011;56517;51.634;5.566;2023-12-22T04:26:54;20.63;;;8.45;;
62268;SDS011;56517;51.634;5.566;2023-12-22T04:28:15;15.68;;;8.82;;
62268;SDS011;56517;51.634;5.566;2023-12-22T04:29:36;26.80;;;9.00;;
62268;SDS011;56517;51.634;5.566;2023-12-22T04:30:57;19.83;;;7.30;;
62268;SDS011;56517;51.634;5.566;2023-12-22T04:32:18;17.30;;;8.55;;
62268;SDS011;56517;51.634;5.566;2023-12-22T04:33:39;25.58;;;8.50;;
62268;SDS011;56517;51.634;5.566;2023-12-22T04:35:00;17.30;;;7.97;;
62268;SDS011;56517;51.634;5.566;2023-12-22T04:36:21;15.13;;;7.80;;
62268;SDS011;56517;51.634;5.566;2023-12-22T04:37:42;18.40;;;8.27;;
62268;SDS011;56517;51.634;5.566;2023-12-22T04:39:03;16.27;;;8.30;;
62268;SDS011;56517;51.634;5.566;2023-12-22T04:40:23;15.65;;;8.63;;
62268;SDS011;56517;51.634;5.566;2023-12-22T04:41:44;22.92;;;9.02;;
62268;SDS011;56517;51.634;5.566;2023-12-22T04:43:05;22.52;;;8.90;;
62268;SDS011;56517;51.634;5.566;2023-12-22T04:44:26;21.25;;;8.20;;
62268;SDS011;56517;51.634;5.566;2023-12-22T04:45:47;23.98;;;8.35;;
62268;SDS011;56517;51.634;5.566;2023-12-22T04:47:08;17.98;;;7.70;;
62268;SDS011;56517;51.634;5.566;2023-12-22T04:48:29;20.67;;;9.15;;
62268;SDS011;56517;51.634;5.566;2023-12-22T04:49:50;16.42;;;8.15;;
62268;SDS011;56517;51.634;5.566;2023-12-22T04:51:10;13.68;;;8.02;;
62268;SDS011;56517;51.634;5.566;2023-12-22T04:52:31;17.08;;;8.25;;
62268;SDS011;56517;51.634;5.566;2023-12-22T04:53:52;18.73;;;9.00;;
62268;SDS011;56517;51.634;5.566;2023-12-22T04:55:13;18.63;;;8.55;;
62268;SDS011;56517;51.634;5.566;2023-12-22T04:56:34;18.42;;;9.02;;
62268;SDS011;56517;51.634;5.566;2023-12-22T04:57:55;19.27;;;9.35;;
62268;SDS011;56517;51.634;5.566;2023-12-22T04:59:16;19.98;;;8.10;;
62268;SDS011;56517;51.634;5.566;2023-12-22T05:00:37;22.33;;;8.48;;
62268;SDS011;56517;51.634;5.566;2023-12-22T05:01:58;16.38;;;7.97;;
62268;SDS011;56517;51.634;5.566;2023-12-22T05:03:19;24.48;;;8.43;;
62268;SDS011;56517;51.634;5.566;2023-12-22T05:04:40;18.45;;;8.60;;
62268;SDS011;56517;51.634;5.566;2023-12-22T05:06:00;18.30;;;8.50;;
62268;SDS011;56517;51.634;5.566;2023-12-22T05:07:21;17.10;;;7.18;;
62268;SDS011;56517;51.634;5.566;2023-12-22T05:08:42;21.83;;;8.60;;
62268;SDS011;56517;51.634;5.566;2023-12-22T05:10:03;13.52;;;8.18;;
62268;SDS011;56517;51.634;5.566;2023-12-22T05:11:24;23.70;;;8.75;;
62268;SDS011;56517;51.634;5.566;2023-12-22T05:12:45;23.55;;;8.43;;
62268;SDS011;56517;51.634;5.566;2023-12-22T05:14:06;17.13;;;8.25;;
62268;SDS011;56517;51.634;5.566;2023-12-22T05:15:27;11.55;;;8.10;;
62268;SDS011;56517;51.634;5.566;2023-12-22T05:16:48;20.08;;;8.38;;
62268;SDS011;56517;51.634;5.566;2023-12-22T05:18:09;15.18;;;7.95;;
62268;SDS011;56517;51.634;5.566;2023-12-22T05:19:29;12.30;;;8.18;;
62268;SDS011;56517;51.634;5.566;2023-12-22T05:20:50;19.50;;;8.30;;
62268;SDS011;56517;51.634;5.566;2023-12-22T05:22:12;10.30;;;7.43;;
62268;SDS011;56517;51.634;5.566;2023-12-22T05:23:33;14.93;;;7.57;;
62268;SDS011;56517;51.634;5.566;2023-12-22T05:24:54;14.75;;;8.98;;
62268;SDS011;56517;51.634;5.566;2023-12-22T05:26:18;21.35;;;8.43;;
62268;SDS011;56517;51.634;5.566;2023-12-22T05:27:39;19.30;;;8.30;;
62268;SDS011;56517;51.634;5.566;2023-12-22T05:29:02;14.95;;;7.63;;
62268;SDS011;56517;51.634;5.566;2023-12-22T05:30:23;12.82;;;8.02;;
62268;SDS011;56517;51.634;5.566;2023-12-22T05:31:44;22.83;;;8.10;;
62268;SDS011;56517;51.634;5.566;2023-12-22T05:33:04;15.32;;;7.70;;
62268;SDS011;56517;51.634;5.566;2023-12-22T05:34:25;14.57;;;8.18;;
62268;SDS011;56517;51.634;5.566;2023-12-22T05:35:46;16.30;;;7.55;;
62268;SDS011;56517;51.634;5.566;2023-12-22T05:37:07;18.27;;;7.68;;
62268;SDS011;56517;51.634;5.566;2023-12-22T05:38:28;13.70;;;8.07;;
62268;SDS011;56517;51.634;5.566;2023-12-22T05:39:49;16.25;;;8.77;;
62268;SDS011;56517;51.634;5.566;2023-12-22T05:41:10;14.50;;;7.82;;
62268;SDS011;56517;51.634;5.566;2023-12-22T05:42:31;14.80;;;8.02;;
62268;SDS011;56517;51.634;5.566;2023-12-22T05:43:51;13.77;;;8.15;;
62268;SDS011;56517;51.634;5.566;2023-12-22T05:45:13;9.70;;;6.73;;
62268;SDS011;56517;51.634;5.566;2023-12-22T05:46:37;14.90;;;7.80;;
62268;SDS011;56517;51.634;5.566;2023-12-22T05:48:01;15.35;;;8.52;;
62268;SDS011;56517;51.634;5.566;2023-12-22T05:49:22;11.25;;;7.65;;
62268;SDS011;56517;51.634;5.566;2023-12-22T05:50:44;11.48;;;7.57;;
62268;SDS011;56517;51.634;5.566;2023-12-22T05:52:05;16.15;;;8.05;;
62268;SDS011;56517;51.634;5.566;2023-12-22T05:53:26;19.20;;;7.70;;
62268;SDS011;56517;51.634;5.566;2023-12-22T05:54:46;18.33;;;8.45;;
62268;SDS011;56517;51.634;5.566;2023-12-22T05:56:25;13.63;;;7.78;;
62268;SDS011;56517;51.634;5.566;2023-12-22T05:57:46;18.02;;;8.15;;
62268;SDS011;56517;51.634;5.566;2023-12-22T05:59:07;15.13;;;7.80;;
62268;SDS011;56517;51.634;5.566;2023-12-22T06:00:28;15.10;;;7.40;;
62268;SDS011;56517;51.634;5.566;2023-12-22T06:01:52;16.00;;;7.30;;
62268;SDS011;56517;51.634;5.566;2023-12-22T06:03:13;16.40;;;8.43;;
62268;SDS011;56517;51.634;5.566;2023-12-22T06:04:34;13.02;;;7.90;;
62268;SDS011;56517;51.634;5.566;2023-12-22T06:05:55;20.85;;;7.63;;
62268;SDS011;56517;51.634;5.566;2023-12-22T06:07:16;22.50;;;8.55;;
62268;SDS011;56517;51.634;5.566;2023-12-22T06:08:37;20.73;;;8.75;;
62268;SDS011;56517;51.634;5.566;2023-12-22T06:09:59;27.92;;;9.13;;
62268;SDS011;56517;51.634;5.566;2023-12-22T06:11:20;21.88;;;9.65;;
62268;SDS011;56517;51.634;5.566;2023-12-22T06:12:40;27.85;;;9.70;;
62268;SDS011;56517;51.634;5.566;2023-12-22T06:14:01;19.77;;;9.20;;
62268;SDS011;56517;51.634;5.566;2023-12-22T06:15:22;24.25;;;9.98;;
62268;SDS011;56517;51.634;5.566;2023-12-22T06:16:43;22.42;;;9.05;;
62268;SDS011;56517;51.634;5.566;2023-12-22T06:18:04;17.55;;;8.90;;
62268;SDS011;56517;51.634;5.566;2023-12-22T06:19:25;33.15;;;9.85;;
62268;SDS011;56517;51.634;5.566;2023-12-22T06:20:49;29.50;;;10.38;;
62268;SDS011;56517;51.634;5.566;2023-12-22T06:22:10;27.05;;;9.65;;
62268;SDS011;56517;51.634;5.566;2023-12-22T06:23:31;24.90;;;9.43;;
62268;SDS011;56517;51.634;5.566;2023-12-22T06:24:52;23.42;;;10.00;;
62268;SDS011;56517;51.634;5.566;2023-12-22T06:26:13;24.92;;;10.93;;
62268;SDS011;56517;51.634;5.566;2023-12-22T06:27:34;32.83;;;9.60;;
62268;SDS011;56517;51.634;5.566;2023-12-22T06:28:55;21.23;;;9.48;;
62268;SDS011;56517;51.634;5.566;2023-12-22T06:30:16;23.03;;;9.97;;
62268;SDS011;56517;51.634;5.566;2023-12-22T06:31:38;23.27;;;9.50;;
62268;SDS011;56517;51.634;5.566;2023-12-22T06:32:59;31.48;;;10.27;;
62268;SDS011;56517;51.634;5.566;2023-12-22T06:34:20;21.10;;;9.20;;
62268;SDS011;56517;51.634;5.566;2023-12-22T06:35:40;29.70;;;11.45;;
62268;SDS011;56517;51.634;5.566;2023-12-22T06:37:02;24.35;;;10.05;;
62268;SDS011;56517;51.634;5.566;2023-12-22T06:38:23;27.02;;;9.60;;
62268;SDS011;56517;51.634;5.566;2023-12-22T06:39:44;28.67;;;9.70;;
62268;SDS011;56517;51.634;5.566;2023-12-22T06:41:05;22.75;;;10.25;;
62268;SDS011;56517;51.634;5.566;2023-12-22T06:42:25;26.27;;;10.23;;
62268;SDS011;56517;51.634;5.566;2023-12-22T06:43:46;27.52;;;10.63;;
62268;SDS011;56517;51.634;5.566;2023-12-22T06:45:07;25.42;;;9.93;;
62268;SDS011;56517;51.634;5.566;2023-12-22T06:46:28;25.08;;;9.60;;
62268;SDS011;56517;51.634;5.566;2023-12-22T06:47:49;24.83;;;9.20;;
62268;SDS011;56517;51.634;5.566;2023-12-22T06:49:10;26.05;;;9.63;;
62268;SDS011;56517;51.634;5.566;2023-12-22T06:50:31;30.52;;;9.85;;
62268;SDS011;56517;51.634;5.566;2023-12-22T06:51:52;27.48;;;10.63;;
62268;SDS011;56517;51.634;5.566;2023-12-22T06:53:13;34.78;;;10.77;;
62268;SDS011;56517;51.634;5.566;2023-12-22T06:54:34;36.50;;;10.68;;
62268;SDS011;56517;51.634;5.566;2023-12-22T06:55:55;33.80;;;11.18;;
62268;SDS011;56517;51.634;5.566;2023-12-22T06:57:15;38.47;;;11.07;;
62268;SDS011;56517;51.634;5.566;2023-12-22T06:58:37;28.90;;;10.10;;
62268;SDS011;56517;51.634;5.566;2023-12-22T06:59:58;29.40;;;11.38;;
62268;SDS011;56517;51.634;5.566;2023-12-22T07:01:22;35.72;;;10.40;;
62268;SDS011;56517;51.634;5.566;2023-12-22T07:02:43;29.00;;;9.77;;
62268;SDS011;56517;51.634;5.566;2023-12-22T07:04:05;36.05;;;10.85;;
62268;SDS011;56517;51.634;5.566;2023-12-22T07:05:29;36.17;;;11.18;;
62268;SDS011;56517;51.634;5.566;2023-12-22T07:06:50;27.45;;;10.73;;
62268;SDS011;56517;51.634;5.566;2023-12-22T07:08:11;35.78;;;11.10;;
62268;SDS011;56517;51.634;5.566;2023-12-22T07:09:33;32.10;;;10.18;;
62268;SDS011;56517;51.634;5.566;2023-12-22T07:10:54;29.77;;;10.85;;
62268;SDS011;56517;51.634;5.566;2023-12-22T07:12:15;30.48;;;10.02;;
62268;SDS011;56517;51.634;5.566;2023-12-22T07:13:36;35.72;;;10.98;;
62268;SDS011;56517;51.634;5.566;2023-12-22T07:14:57;46.92;;;10.98;;
62268;SDS011;56517;51.634;5.566;2023-12-22T07:16:18;28.35;;;10.43;;
62268;SDS011;56517;51.634;5.566;2023-12-22T07:17:39;34.05;;;10.38;;
62268;SDS011;56517;51.634;5.566;2023-12-22T07:19:00;33.65;;;10.95;;
62268;SDS011;56517;51.634;5.566;2023-12-22T07:20:21;34.38;;;10.98;;
62268;SDS011;56517;51.634;5.566;2023-12-22T07:21:42;38.53;;;9.55;;
62268;SDS011;56517;51.634;5.566;2023-12-22T07:23:03;33.25;;;11.68;;
62268;SDS011;56517;51.634;5.566;2023-12-22T07:24:24;30.65;;;11.27;;
62268;SDS011;56517;51.634;5.566;2023-12-22T07:25:44;34.50;;;10.35;;
62268;SDS011;56517;51.634;5.566;2023-12-22T07:27:05;31.95;;;10.90;;
62268;SDS011;56517;51.634;5.566;2023-12-22T07:28:26;37.67;;;11.73;;
62268;SDS011;56517;51.634;5.566;2023-12-22T07:29:47;36.53;;;10.50;;
62268;SDS011;56517;51.634;5.566;2023-12-22T07:31:08;43.38;;;11.70;;
62268;SDS011;56517;51.634;5.566;2023-12-22T07:32:29;37.45;;;11.77;;
62268;SDS011;56517;51.634;5.566;2023-12-22T07:33:51;42.03;;;11.90;;
62268;SDS011;56517;51.634;5.566;2023-12-22T07:35:12;30.88;;;10.73;;
62268;SDS011;56517;51.634;5.566;2023-12-22T07:36:33;36.03;;;11.45;;
62268;SDS011;56517;51.634;5.566;2023-12-22T07:37:54;42.70;;;12.05;;
62268;SDS011;56517;51.634;5.566;2023-12-22T07:39:15;35.10;;;11.13;;
62268;SDS011;56517;51.634;5.566;2023-12-22T07:40:36;32.75;;;10.05;;
62268;SDS011;56517;51.634;5.566;2023-12-22T07:41:57;30.02;;;10.85;;
62268;SDS011;56517;51.634;5.566;2023-12-22T07:43:18;34.00;;;9.63;;
62268;SDS011;56517;51.634;5.566;2023-12-22T07:44:39;33.92;;;9.90;;
62268;SDS011;56517;51.634;5.566;2023-12-22T07:45:59;32.20;;;10.88;;
62268;SDS011;56517;51.634;5.566;2023-12-22T07:47:20;29.77;;;10.75;;
62268;SDS011;56517;51.634;5.566;2023-12-22T07:48:41;39.53;;;11.90;;
62268;SDS011;56517;51.634;5.566;2023-12-22T07:50:03;37.30;;;11.23;;
62268;SDS011;56517;51.634;5.566;2023-12-22T07:51:24;29.35;;;10.07;;
62268;SDS011;56517;51.634;5.566;2023-12-22T07:52:44;33.90;;;12.00;;
62268;SDS011;56517;51.634;5.566;2023-12-22T07:54:05;35.05;;;11.23;;
62268;SDS011;56517;51.634;5.566;2023-12-22T07:55:27;30.00;;;10.05;;
62268;SDS011;56517;51.634;5.566;2023-12-22T07:56:48;31.73;;;10.82;;
62268;SDS011;56517;51.634;5.566;2023-12-22T07:58:08;44.80;;;11.15;;
62268;SDS011;56517;51.634;5.566;2023-12-22T07:59:29;29.52;;;10.50;;
62268;SDS011;56517;51.634;5.566;2023-12-22T08:00:50;27.25;;;9.10;;
62268;SDS011;56517;51.634;5.566;2023-12-22T08:02:11;28.75;;;9.65;;
62268;SDS011;56517;51.634;5.566;2023-12-22T08:03:32;32.17;;;10.27;;
62268;SDS011;56517;51.634;5.566;2023-12-22T08:04:53;41.22;;;11.90;;